Time;durP1;ratioP1;P1;durP2;ratioP2;P2;SDS_P1;SDS_P2;PMS_P1;PMS_P2;Temp;Humidity;BMP_temperature;BMP_pressure;BME280_temperature;BME280_humidity;BME280_pressure;Samples;Min_cycle;Max_cycle;Signal;HPM_P1;HPM_P2
2023/12/31 00:01:49;;;;;;;2.85;1.67;;;;;;;;;;5085025;28;20481;-58
2023/12/31 00:04:17;;;;;;;3.78;1.50;;;;;;;;;;5094086;28;20421;-57
2023/12/31 00:06:45;;;;;;;3.75;1.70;;;;;;;;;;5094473;28;20059;-58
2023/12/31 00:09:11;;;;;;;2.65;1.80;;;;;;;;;;5086368;28;20044;-58
2023/12/31 00:11:38;;;;;;;3.63;1.95;;;;;;;;;;5084113;28;20059;-57
2023/12/31 00:14:05;;;;;;;2.58;1.75;;;;;;;;;;5088560;28;20060;-57
2023/12/31 00:16:33;;;;;;;3.35;2.20;;;;;;;;;;5088315;28;20051;-58
2023/12/31 00:19:00;;;;;;;3.17;1.80;;;;;;;;;;5081871;28;20056;-58
2023/12/31 00:21:28;;;;;;;4.93;2.20;;;;;;;;;;5088900;28;20055;-58
2023/12/31 00:23:55;;;;;;;4.32;2.08;;;;;;;;;;5074436;28;20052;-58
2023/12/31 00:26:22;;;;;;;3.63;2.17;;;;;;;;;;5074105;28;20516;-58
2023/12/31 00:28:48;;;;;;;3.17;2.00;;;;;;;;;;5073837;28;20478;-58
2023/12/31 00:31:15;;;;;;;3.55;2.15;;;;;;;;;;5073782;28;20048;-58
2023/12/31 00:33:42;;;;;;;3.88;2.28;;;;;;;;;;5088043;28;20048;-58
2023/12/31 00:36:09;;;;;;;3.78;2.40;;;;;;;;;;5084757;28;20060;-58
2023/12/31 00:38:37;;;;;;;4.88;2.30;;;;;;;;;;5073738;28;20508;-58
2023/12/31 00:41:04;;;;;;;3.42;2.40;;;;;;;;;;5074904;28;20049;-59
2023/12/31 00:43:31;;;;;;;3.80;2.60;;;;;;;;;;5086486;28;20055;-58
2023/12/31 00:45:57;;;;;;;4.05;2.85;;;;;;;;;;5089527;28;20044;-58
2023/12/31 00:48:24;;;;;;;3.50;2.40;;;;;;;;;;5087358;28;20052;-58
2023/12/31 00:50:51;;;;;;;2.42;1.92;;;;;;;;;;5081470;28;20048;-58
2023/12/31 00:53:18;;;;;;;4.10;2.50;;;;;;;;;;5073656;28;20482;-58
2023/12/31 00:55:46;;;;;;;4.97;2.60;;;;;;;;;;5073662;28;20497;-58
2023/12/31 00:58:13;;;;;;;4.68;2.15;;;;;;;;;;5084535;28;20074;-58
2023/12/31 01:00:40;;;;;;;3.58;2.50;;;;;;;;;;5093829;28;20048;-58
2023/12/31 01:03:06;;;;;;;4.57;2.40;;;;;;;;;;5088591;28;20416;-57
2023/12/31 01:05:33;;;;;;;5.45;2.50;;;;;;;;;;5088190;28;20060;-58
2023/12/31 01:08:00;;;;;;;4.10;2.55;;;;;;;;;;5079072;28;20048;-59
2023/12/31 01:10:27;;;;;;;3.50;2.58;;;;;;;;;;5083517;28;20071;-58
2023/12/31 01:12:55;;;;;;;3.22;2.25;;;;;;;;;;5085618;28;20079;-58
2023/12/31 01:15:22;;;;;;;4.40;2.40;;;;;;;;;;5088299;28;20475;-58
2023/12/31 01:17:49;;;;;;;3.25;2.10;;;;;;;;;;5093131;28;20079;-58
2023/12/31 01:20:16;;;;;;;5.22;2.70;;;;;;;;;;5092122;28;20067;-58
2023/12/31 01:22:43;;;;;;;3.83;2.38;;;;;;;;;;5083558;28;20048;-58
2023/12/31 01:25:10;;;;;;;3.35;2.35;;;;;;;;;;5072659;28;20060;-58
2023/12/31 01:27:37;;;;;;;7.32;2.45;;;;;;;;;;5072557;28;20060;-58
2023/12/31 01:30:06;;;;;;;2.90;2.30;;;;;;;;;;5073077;28;20048;-58
2023/12/31 01:32:33;;;;;;;3.67;2.25;;;;;;;;;;5076140;28;20049;-58
2023/12/31 01:35:00;;;;;;;2.70;2.35;;;;;;;;;;5078646;28;20064;-59
2023/12/31 01:37:27;;;;;;;4.05;2.60;;;;;;;;;;5070677;28;20063;-58
2023/12/31 01:39:54;;;;;;;2.78;2.05;;;;;;;;;;5072548;28;20478;-57
2023/12/31 01:42:21;;;;;;;3.40;2.08;;;;;;;;;;5079701;28;20489;-58
2023/12/31 01:44:48;;;;;;;2.90;2.00;;;;;;;;;;5087405;28;20059;-58
2023/12/31 01:47:17;;;;;;;3.55;1.95;;;;;;;;;;5092481;28;20052;-58
2023/12/31 01:49:44;;;;;;;4.57;2.50;;;;;;;;;;5089462;28;20056;-58
2023/12/31 01:52:12;;;;;;;3.58;2.00;;;;;;;;;;5081728;28;20048;-58
2023/12/31 01:54:38;;;;;;;3.00;1.60;;;;;;;;;;5083630;28;20048;-58
2023/12/31 01:57:06;;;;;;;2.47;1.77;;;;;;;;;;5092360;28;20071;-58
2023/12/31 01:59:33;;;;;;;2.35;1.52;;;;;;;;;;5092014;28;20048;-58
2023/12/31 02:02:00;;;;;;;2.72;1.80;;;;;;;;;;5083312;28;20047;-58
2023/12/31 02:04:32;;;;;;;2.20;1.60;;;;;;;;;;5078703;28;20059;-58
2023/12/31 02:06:59;;;;;;;2.72;1.60;;;;;;;;;;5072140;28;20056;-58
2023/12/31 02:09:26;;;;;;;2.10;1.70;;;;;;;;;;5072239;28;20052;-58
2023/12/31 02:11:53;;;;;;;2.25;1.70;;;;;;;;;;5072082;28;20048;-58
2023/12/31 02:14:20;;;;;;;2.78;1.77;;;;;;;;;;5080837;28;20063;-58
2023/12/31 02:16:47;;;;;;;2.53;1.70;;;;;;;;;;5089249;28;20512;-58
2023/12/31 02:19:13;;;;;;;2.80;1.75;;;;;;;;;;5087120;28;20056;-59
2023/12/31 02:21:42;;;;;;;2.67;1.63;;;;;;;;;;5080442;28;20182;-58
2023/12/31 02:24:12;;;;;;;3.72;1.70;;;;;;;;;;5087552;28;20059;-58
2023/12/31 02:26:40;;;;;;;2.67;1.48;;;;;;;;;;5081197;28;20063;-59
2023/12/31 02:29:07;;;;;;;3.30;1.83;;;;;;;;;;5069674;28;20041;-57
2023/12/31 02:31:35;;;;;;;2.67;1.50;;;;;;;;;;5070760;28;20045;-58
2023/12/31 02:34:01;;;;;;;2.70;1.80;;;;;;;;;;5070236;28;20049;-57
2023/12/31 02:36:28;;;;;;;1.90;1.60;;;;;;;;;;5075952;28;20059;-58
2023/12/31 02:38:55;;;;;;;2.97;1.65;;;;;;;;;;5083920;28;20044;-58
2023/12/31 02:41:22;;;;;;;2.72;1.73;;;;;;;;;;5080787;28;20048;-58
2023/12/31 02:43:51;;;;;;;1.98;1.52;;;;;;;;;;5086419;28;20055;-58
2023/12/31 02:46:17;;;;;;;2.75;1.50;;;;;;;;;;5091587;28;20052;-58
2023/12/31 02:48:43;;;;;;;3.45;1.45;;;;;;;;;;5087555;28;20062;-58
2023/12/31 02:51:10;;;;;;;4.82;1.70;;;;;;;;;;5074345;28;20044;-59
2023/12/31 02:53:37;;;;;;;3.97;1.80;;;;;;;;;;5091424;28;20067;-57
2023/12/31 02:56:04;;;;;;;2.75;1.60;;;;;;;;;;5092228;28;20048;-57
2023/12/31 02:58:31;;;;;;;3.15;1.50;;;;;;;;;;5092056;28;20461;-58
2023/12/31 03:01:00;;;;;;;5.07;2.10;;;;;;;;;;5092038;28;20481;-58
2023/12/31 03:03:27;;;;;;;2.40;1.45;;;;;;;;;;5080042;28;20055;-57
2023/12/31 03:05:54;;;;;;;3.28;1.75;;;;;;;;;;5084865;28;20067;-58
2023/12/31 03:08:22;;;;;;;2.92;1.83;;;;;;;;;;5083831;28;20085;-58
2023/12/31 03:10:49;;;;;;;2.70;1.77;;;;;;;;;;5074898;28;20059;-58
2023/12/31 03:13:16;;;;;;;2.00;1.48;;;;;;;;;;5086773;28;20067;-57
2023/12/31 03:15:42;;;;;;;3.10;2.05;;;;;;;;;;5089067;28;20520;-58
2023/12/31 03:18:11;;;;;;;2.72;1.83;;;;;;;;;;5075243;28;20382;-58
2023/12/31 03:20:37;;;;;;;3.65;1.80;;;;;;;;;;5075725;28;20048;-58
2023/12/31 03:23:04;;;;;;;3.63;1.90;;;;;;;;;;5083739;28;20048;-58
2023/12/31 03:25:31;;;;;;;2.45;1.70;;;;;;;;;;5091471;28;20469;-58
2023/12/31 03:27:58;;;;;;;3.03;1.88;;;;;;;;;;5087173;28;20055;-58
2023/12/31 03:30:25;;;;;;;3.58;1.85;;;;;;;;;;5087331;28;20048;-58
2023/12/31 03:32:51;;;;;;;3.65;2.00;;;;;;;;;;5089045;28;20063;-58
2023/12/31 03:35:20;;;;;;;5.65;2.03;;;;;;;;;;5085996;28;20495;-58
2023/12/31 03:37:47;;;;;;;2.65;1.92;;;;;;;;;;5086539;28;20409;-57
2023/12/31 03:40:14;;;;;;;3.70;1.80;;;;;;;;;;5087191;28;20055;-57
2023/12/31 03:42:41;;;;;;;3.10;2.17;;;;;;;;;;5086620;28;20044;-59
2023/12/31 03:45:08;;;;;;;3.22;2.08;;;;;;;;;;5080325;28;20059;-58
2023/12/31 03:47:35;;;;;;;3.45;2.20;;;;;;;;;;5074913;28;20397;-59
2023/12/31 03:50:02;;;;;;;3.42;2.20;;;;;;;;;;5075076;28;20406;-57
2023/12/31 03:52:31;;;;;;;4.03;1.92;;;;;;;;;;5082430;28;20044;-58
2023/12/31 03:54:57;;;;;;;6.78;4.25;;;;;;;;;;5089455;28;20508;-58
2023/12/31 03:57:24;;;;;;;3.92;1.95;;;;;;;;;;5095153;28;20056;-57
2023/12/31 03:59:51;;;;;;;3.28;1.92;;;;;;;;;;5085783;28;20374;-58
2023/12/31 04:02:18;;;;;;;3.78;2.20;;;;;;;;;;5085870;28;20059;-58
2023/12/31 04:04:45;;;;;;;3.28;1.90;;;;;;;;;;5094453;28;20404;-57
2023/12/31 04:07:12;;;;;;;3.20;1.85;;;;;;;;;;5094691;28;20055;-58
2023/12/31 04:09:40;;;;;;;2.47;1.80;;;;;;;;;;5094870;28;20397;-58
2023/12/31 04:12:07;;;;;;;3.50;1.85;;;;;;;;;;5087219;28;20045;-57
2023/12/31 04:14:34;;;;;;;3.33;1.92;;;;;;;;;;5077494;28;20052;-57
2023/12/31 04:17:01;;;;;;;2.72;1.90;;;;;;;;;;5087182;28;20055;-58
2023/12/31 04:19:28;;;;;;;3.03;1.52;;;;;;;;;;5084880;28;20048;-58
2023/12/31 04:21:55;;;;;;;3.22;1.77;;;;;;;;;;5084257;28;20048;-59
2023/12/31 04:24:22;;;;;;;2.75;1.80;;;;;;;;;;5087987;28;20404;-59
2023/12/31 04:26:50;;;;;;;2.33;1.77;;;;;;;;;;5084865;28;20044;-58
2023/12/31 04:29:17;;;;;;;2.30;1.70;;;;;;;;;;5074098;28;20504;-58
2023/12/31 04:31:44;;;;;;;3.58;1.63;;;;;;;;;;5073873;28;20417;-58
2023/12/31 04:34:10;;;;;;;3.28;1.75;;;;;;;;;;5086527;28;20404;-58
2023/12/31 04:36:37;;;;;;;2.97;1.40;;;;;;;;;;5094092;28;20130;-57
2023/12/31 04:39:04;;;;;;;4.30;1.70;;;;;;;;;;5094019;28;20382;-57
2023/12/31 04:41:31;;;;;;;3.70;1.85;;;;;;;;;;5093349;28;20059;-58
2023/12/31 04:43:59;;;;;;;2.42;1.45;;;;;;;;;;5086196;28;20048;-57
2023/12/31 04:46:26;;;;;;;3.58;1.52;;;;;;;;;;5087685;28;20071;-58
2023/12/31 04:48:53;;;;;;;2.40;1.50;;;;;;;;;;5085552;28;20052;-58
2023/12/31 04:51:24;;;;;;;2.45;1.50;;;;;;;;;;5090455;28;20040;-58
2023/12/31 04:53:50;;;;;;;2.00;1.13;;;;;;;;;;5087703;28;20086;-58
2023/12/31 04:56:18;;;;;;;2.53;1.45;;;;;;;;;;5093296;28;20052;-58
2023/12/31 04:58:45;;;;;;;2.13;1.48;;;;;;;;;;5080373;28;20500;-58
2023/12/31 05:01:13;;;;;;;1.95;1.30;;;;;;;;;;5079959;28;20051;-58
2023/12/31 05:03:40;;;;;;;2.03;1.23;;;;;;;;;;5070830;28;20060;-57
2023/12/31 05:06:07;;;;;;;2.85;1.00;;;;;;;;;;5070240;28;20053;-58
2023/12/31 05:08:34;;;;;;;2.17;1.38;;;;;;;;;;5088353;28;20048;-58
2023/12/31 05:11:01;;;;;;;2.70;1.40;;;;;;;;;;5093554;28;20060;-58
2023/12/31 05:13:27;;;;;;;2.22;1.23;;;;;;;;;;5082818;28;20059;-58
2023/12/31 05:15:54;;;;;;;2.55;1.20;;;;;;;;;;5087256;28;20044;-57
2023/12/31 05:18:22;;;;;;;2.92;1.60;;;;;;;;;;5082104;28;20048;-58
2023/12/31 05:20:51;;;;;;;2.10;1.38;;;;;;;;;;5084870;28;20053;-59
2023/12/31 05:23:18;;;;;;;2.10;1.43;;;;;;;;;;5088779;28;20051;-57
2023/12/31 05:25:45;;;;;;;2.80;1.48;;;;;;;;;;5080350;28;20497;-58
2023/12/31 05:28:12;;;;;;;2.80;1.42;;;;;;;;;;5073217;28;20049;-58
2023/12/31 05:30:41;;;;;;;3.47;1.35;;;;;;;;;;5073027;28;20315;-58
2023/12/31 05:33:08;;;;;;;2.35;1.20;;;;;;;;;;5082102;28;20052;-58
2023/12/31 05:35:36;;;;;;;3.05;1.27;;;;;;;;;;5081107;28;20075;-58
2023/12/31 05:38:03;;;;;;;2.13;1.35;;;;;;;;;;5083719;28;20060;-58
2023/12/31 05:40:29;;;;;;;3.10;1.20;;;;;;;;;;5079235;28;20053;-58
2023/12/31 05:42:56;;;;;;;2.33;1.40;;;;;;;;;;5089345;28;20044;-58
2023/12/31 05:45:23;;;;;;;1.98;1.40;;;;;;;;;;5092593;28;20059;-58
2023/12/31 05:47:50;;;;;;;2.10;1.20;;;;;;;;;;5092632;28;20055;-59
2023/12/31 05:50:17;;;;;;;3.00;1.50;;;;;;;;;;5093062;28;20051;-58
2023/12/31 05:52:47;;;;;;;2.90;1.40;;;;;;;;;;5087169;28;20048;-58
2023/12/31 05:55:14;;;;;;;2.42;1.33;;;;;;;;;;5072723;28;20059;-57
2023/12/31 05:57:43;;;;;;;2.20;1.73;;;;;;;;;;5072765;28;20510;-57
2023/12/31 06:00:10;;;;;;;2.53;1.43;;;;;;;;;;5072701;28;20060;-59
2023/12/31 06:02:37;;;;;;;2.92;1.52;;;;;;;;;;5076382;28;20048;-58
2023/12/31 06:05:05;;;;;;;3.30;1.42;;;;;;;;;;5085196;28;20063;-59
2023/12/31 06:07:31;;;;;;;2.30;1.38;;;;;;;;;;5081338;28;20517;-58
2023/12/31 06:10:00;;;;;;;2.55;1.40;;;;;;;;;;5081430;28;20059;-59
2023/12/31 06:12:28;;;;;;;2.70;1.80;;;;;;;;;;5082526;28;20409;-58
2023/12/31 06:14:54;;;;;;;2.55;1.70;;;;;;;;;;5080646;28;20060;-58
2023/12/31 06:17:21;;;;;;;2.67;1.73;;;;;;;;;;5071873;28;20058;-58
2023/12/31 06:19:48;;;;;;;4.15;1.65;;;;;;;;;;5072413;28;20060;-57
2023/12/31 06:22:16;;;;;;;3.40;1.45;;;;;;;;;;5074458;28;20049;-59
2023/12/31 06:24:43;;;;;;;2.35;1.50;;;;;;;;;;5081020;28;20044;-57
2023/12/31 06:27:11;;;;;;;2.55;1.40;;;;;;;;;;5082078;28;20068;-58
2023/12/31 06:29:37;;;;;;;2.58;1.50;;;;;;;;;;5081557;28;20055;-58
2023/12/31 06:32:05;;;;;;;3.03;1.40;;;;;;;;;;5081234;28;20488;-59
2023/12/31 06:34:31;;;;;;;5.22;1.70;;;;;;;;;;5089008;28;20059;-58
2023/12/31 06:36:58;;;;;;;4.10;1.73;;;;;;;;;;5088519;28;20086;-58
2023/12/31 06:39:25;;;;;;;2.95;1.40;;;;;;;;;;5086353;28;20043;-58
2023/12/31 06:41:52;;;;;;;2.47;1.45;;;;;;;;;;5082204;28;20055;-58
2023/12/31 06:44:20;;;;;;;2.35;1.60;;;;;;;;;;5086253;28;20055;-58
2023/12/31 06:46:47;;;;;;;3.28;1.40;;;;;;;;;;5085085;28;20043;-60
2023/12/31 06:49:13;;;;;;;2.30;1.50;;;;;;;;;;5083926;28;20056;-58
2023/12/31 06:51:40;;;;;;;2.95;1.60;;;;;;;;;;5084767;28;20055;-58
2023/12/31 06:54:07;;;;;;;2.47;1.60;;;;;;;;;;5096034;28;20048;-58
2023/12/31 06:56:34;;;;;;;2.85;1.65;;;;;;;;;;5096146;28;20508;-58
2023/12/31 06:59:01;;;;;;;2.80;1.65;;;;;;;;;;5096068;28;20063;-58
2023/12/31 07:01:29;;;;;;;2.78;1.40;;;;;;;;;;5092151;28;21154;-58
2023/12/31 07:03:56;;;;;;;2.35;1.42;;;;;;;;;;5085916;28;20401;-59
2023/12/31 07:06:22;;;;;;;2.20;1.50;;;;;;;;;;5076930;28;20619;-58
2023/12/31 07:08:49;;;;;;;2.28;1.60;;;;;;;;;;5075025;28;20052;-58
2023/12/31 07:11:16;;;;;;;3.03;1.60;;;;;;;;;;5075063;28;20064;-57
2023/12/31 07:13:43;;;;;;;2.13;1.50;;;;;;;;;;5087277;28;20412;-59
2023/12/31 07:16:10;;;;;;;2.40;1.55;;;;;;;;;;5089837;28;20055;-58
2023/12/31 07:18:38;;;;;;;2.13;1.70;;;;;;;;;;5083417;28;20048;-58
2023/12/31 07:21:05;;;;;;;2.63;1.80;;;;;;;;;;5086052;28;20049;-58
2023/12/31 07:23:33;;;;;;;3.17;1.65;;;;;;;;;;5081027;28;20045;-58
2023/12/31 07:25:59;;;;;;;2.80;1.60;;;;;;;;;;5075448;28;20064;-58
2023/12/31 07:28:26;;;;;;;3.00;1.77;;;;;;;;;;5082949;28;20051;-58
2023/12/31 07:30:53;;;;;;;2.33;1.50;;;;;;;;;;5085143;28;20059;-59
2023/12/31 07:33:20;;;;;;;3.28;1.55;;;;;;;;;;5082179;28;20048;-59
2023/12/31 07:35:48;;;;;;;3.00;2.03;;;;;;;;;;5074768;28;20053;-58
2023/12/31 07:38:15;;;;;;;2.15;1.63;;;;;;;;;;5074843;28;20048;-59
2023/12/31 07:40:42;;;;;;;2.28;1.65;;;;;;;;;;5075424;28;20054;-58
2023/12/31 07:43:09;;;;;;;2.08;1.70;;;;;;;;;;5084293;28;20402;-58
2023/12/31 07:45:36;;;;;;;2.97;1.75;;;;;;;;;;5089186;28;20048;-59
2023/12/31 07:48:05;;;;;;;2.55;1.58;;;;;;;;;;5075595;28;20056;-59
2023/12/31 07:50:32;;;;;;;1.92;1.40;;;;;;;;;;5075156;28;20052;-58
2023/12/31 07:53:00;;;;;;;3.30;2.00;;;;;;;;;;5077598;28;20054;-58
2023/12/31 07:55:27;;;;;;;5.78;1.70;;;;;;;;;;5084686;28;20393;-60
2023/12/31 07:57:54;;;;;;;2.50;1.60;;;;;;;;;;5088263;28;20060;-59
2023/12/31 08:00:21;;;;;;;3.47;1.73;;;;;;;;;;5086832;28;20413;-58
2023/12/31 08:02:48;;;;;;;2.78;1.45;;;;;;;;;;5083258;28;20052;-58
2023/12/31 08:05:15;;;;;;;3.22;1.90;;;;;;;;;;5085395;28;20047;-58
2023/12/31 08:07:42;;;;;;;2.67;1.75;;;;;;;;;;5086656;28;20493;-58
2023/12/31 08:10:11;;;;;;;2.80;1.88;;;;;;;;;;5086239;28;20055;-58
2023/12/31 08:12:38;;;;;;;4.68;2.05;;;;;;;;;;5081421;28;20048;-60
2023/12/31 08:15:05;;;;;;;2.72;1.83;;;;;;;;;;5087909;28;20055;-58
2023/12/31 08:17:33;;;;;;;3.17;2.10;;;;;;;;;;5094612;28;20091;-58
2023/12/31 08:19:59;;;;;;;2.60;1.80;;;;;;;;;;5094783;28;20056;-58
2023/12/31 08:22:27;;;;;;;2.80;2.15;;;;;;;;;;5086546;28;20052;-58
2023/12/31 08:24:53;;;;;;;2.92;1.88;;;;;;;;;;5088060;28;20473;-58
2023/12/31 08:27:22;;;;;;;3.55;1.90;;;;;;;;;;5087262;28;20044;-58
2023/12/31 08:29:48;;;;;;;3.00;2.00;;;;;;;;;;5074383;28;20052;-58
2023/12/31 08:32:18;;;;;;;2.55;1.75;;;;;;;;;;5087994;28;20417;-58
2023/12/31 08:34:45;;;;;;;;;;;;;;;;;;5094761;28;20048;-58
2023/12/31 08:37:12;;;;;;;3.35;1.63;;;;;;;;;;5094348;28;19990;-58
2023/12/31 08:39:41;;;;;;;2.90;2.17;;;;;;;;;;5086214;28;20052;-58
2023/12/31 08:42:08;;;;;;;2.67;1.75;;;;;;;;;;5083405;28;20052;-58
2023/12/31 08:44:36;;;;;;;2.97;2.10;;;;;;;;;;5073599;28;20465;-58
2023/12/31 08:47:02;;;;;;;4.25;2.05;;;;;;;;;;5073432;28;20133;-58
2023/12/31 08:49:29;;;;;;;3.20;2.00;;;;;;;;;;5073150;28;20052;-58
2023/12/31 08:51:56;;;;;;;2.72;1.90;;;;;;;;;;5076178;28;20052;-59
2023/12/31 08:54:23;;;;;;;3.22;2.10;;;;;;;;;;5083301;28;20048;-59
2023/12/31 08:56:50;;;;;;;2.97;2.00;;;;;;;;;;5076515;28;20060;-59
2023/12/31 08:59:17;;;;;;;3.95;2.13;;;;;;;;;;5081152;28;20059;-58
2023/12/31 09:01:45;;;;;;;3.22;1.90;;;;;;;;;;5082493;28;20398;-58
2023/12/31 09:04:11;;;;;;;3.17;2.00;;;;;;;;;;5083811;28;20060;-58
2023/12/31 09:06:39;;;;;;;2.97;1.92;;;;;;;;;;5081187;28;20052;-58
2023/12/31 09:09:06;;;;;;;2.70;2.05;;;;;;;;;;5075640;28;20052;-58
2023/12/31 09:11:33;;;;;;;2.53;2.00;;;;;;;;;;5079034;28;20083;-59
2023/12/31 09:14:00;;;;;;;4.57;2.47;;;;;;;;;;5082833;28;20048;-58
2023/12/31 09:16:27;;;;;;;2.75;1.95;;;;;;;;;;5079574;28;20049;-59
2023/12/31 09:18:55;;;;;;;3.00;2.40;;;;;;;;;;5080382;28;20488;-58
2023/12/31 09:21:22;;;;;;;3.20;2.25;;;;;;;;;;5079625;28;20055;-59
2023/12/31 09:23:48;;;;;;;3.40;2.80;;;;;;;;;;5078021;28;20048;-58
2023/12/31 09:26:15;;;;;;;3.97;2.28;;;;;;;;;;5072440;28;20057;-58
2023/12/31 09:28:44;;;;;;;3.20;2.42;;;;;;;;;;5080918;28;20052;-58
2023/12/31 09:31:11;;;;;;;3.72;2.30;;;;;;;;;;5080117;28;20412;-58
2023/12/31 09:33:38;;;;;;;3.15;2.40;;;;;;;;;;5080718;28;20064;-58
2023/12/31 09:36:07;;;;;;;3.70;2.28;;;;;;;;;;5081393;28;20444;-58
2023/12/31 09:38:34;;;;;;;6.03;2.60;;;;;;;;;;5070895;28;20059;-58
2023/12/31 09:41:01;;;;;;;4.60;2.50;;;;;;;;;;5074645;28;20057;-58
2023/12/31 09:43:28;;;;;;;3.95;2.20;;;;;;;;;;5080675;28;20082;-58
2023/12/31 09:45:56;;;;;;;3.80;2.67;;;;;;;;;;5079878;28;20385;-58
2023/12/31 09:48:23;;;;;;;3.60;2.88;;;;;;;;;;5078278;28;20056;-58
2023/12/31 09:50:51;;;;;;;3.95;2.80;;;;;;;;;;5079198;28;20058;-58
2023/12/31 09:53:20;;;;;;;3.38;2.17;;;;;;;;;;5073924;28;20048;-58
2023/12/31 09:55:48;;;;;;;4.05;2.75;;;;;;;;;;5072460;28;20052;-58
2023/12/31 09:58:17;;;;;;;3.42;2.50;;;;;;;;;;5076020;28;20051;-58
2023/12/31 10:00:44;;;;;;;2.97;2.47;;;;;;;;;;5092671;28;20059;-58
2023/12/31 10:03:11;;;;;;;3.75;2.63;;;;;;;;;;5079267;28;20055;-58
2023/12/31 10:05:39;;;;;;;3.50;2.78;;;;;;;;;;5079710;28;20045;-58
2023/12/31 10:08:08;;;;;;;4.07;2.80;;;;;;;;;;5088534;28;20060;-58
2023/12/31 10:10:38;;;;;;;3.65;2.72;;;;;;;;;;5092673;28;20059;-58
2023/12/31 10:13:05;;;;;;;;;;;;;;;;;;5087593;28;20056;-59
2023/12/31 10:15:31;;;;;;;3.35;2.50;;;;;;;;;;5082684;28;19927;-58
2023/12/31 10:18:02;;;;;;;3.45;2.70;;;;;;;;;;5083882;28;20056;-58
2023/12/31 10:20:30;;;;;;;4.05;2.78;;;;;;;;;;5072297;28;20056;-59
2023/12/31 10:22:57;;;;;;;3.75;3.00;;;;;;;;;;5084115;28;20416;-59
2023/12/31 10:25:24;;;;;;;3.33;2.80;;;;;;;;;;5078763;28;20052;-58
2023/12/31 10:27:52;;;;;;;5.60;3.13;;;;;;;;;;5080821;28;20052;-58
2023/12/31 10:30:20;;;;;;;4.40;2.83;;;;;;;;;;5077460;28;20058;-58
2023/12/31 10:32:47;;;;;;;5.20;2.65;;;;;;;;;;5086589;28;20055;-58
2023/12/31 10:35:14;;;;;;;3.30;2.78;;;;;;;;;;5086675;28;20425;-58
2023/12/31 10:37:41;;;;;;;4.03;2.90;;;;;;;;;;5079636;28;20059;-59
2023/12/31 10:40:17;;;;;;;4.32;2.97;;;;;;;;;;5085855;28;20048;-58
2023/12/31 10:42:47;;;;;;;3.55;2.85;;;;;;;;;;5083208;28;20508;-58
2023/12/31 10:45:16;;;;;;;3.40;2.60;;;;;;;;;;5086009;28;20056;-58
2023/12/31 10:47:44;;;;;;;4.45;2.85;;;;;;;;;;5081483;28;20048;-57
2023/12/31 10:50:13;;;;;;;3.58;2.80;;;;;;;;;;5079108;28;20056;-58
2023/12/31 10:52:41;;;;;;;4.55;2.78;;;;;;;;;;5083615;28;20051;-58
2023/12/31 10:55:12;;;;;;;3.78;2.60;;;;;;;;;;5083720;28;20059;-58
2023/12/31 10:57:40;;;;;;;4.18;2.63;;;;;;;;;;5086576;28;20055;-58
2023/12/31 11:00:09;;;;;;;3.25;2.80;;;;;;;;;;5094146;28;20086;-59
2023/12/31 11:02:37;;;;;;;4.03;2.88;;;;;;;;;;5083336;28;20044;-58
2023/12/31 11:05:04;;;;;;;5.20;2.83;;;;;;;;;;5081040;28;20051;-62
2023/12/31 11:07:32;;;;;;;3.45;3.00;;;;;;;;;;5080794;28;20044;-66
2023/12/31 11:09:59;;;;;;;3.63;2.70;;;;;;;;;;5083712;28;20060;-62
2023/12/31 11:12:26;;;;;;;3.78;2.50;;;;;;;;;;5088913;28;20056;-62
2023/12/31 11:14:55;;;;;;;4.05;2.78;;;;;;;;;;5084464;28;20489;-62
2023/12/31 11:17:40;;;;;;;3.20;2.22;;;;;;;;;;5082396;28;20381;-62
2023/12/31 11:20:21;;;;;;;3.67;2.70;;;;;;;;;;5083592;28;20405;-62
2023/12/31 11:22:54;;;;;;;3.80;2.40;;;;;;;;;;5082698;28;20060;-63
2023/12/31 11:25:21;;;;;;;4.28;2.50;;;;;;;;;;5083085;28;20068;-63
2023/12/31 11:27:49;;;;;;;2.83;2.30;;;;;;;;;;5085175;28;20052;-59
2023/12/31 11:30:16;;;;;;;4.03;2.80;;;;;;;;;;5081605;28;20081;-59
2023/12/31 11:32:43;;;;;;;3.40;2.40;;;;;;;;;;5074626;28;20418;-60
2023/12/31 11:35:11;;;;;;;3.05;2.20;;;;;;;;;;5082879;28;20056;-59
2023/12/31 11:37:40;;;;;;;3.60;2.20;;;;;;;;;;5084400;28;20051;-59
2023/12/31 11:40:07;;;;;;;3.05;2.22;;;;;;;;;;5084232;28;20048;-59
2023/12/31 11:42:34;;;;;;;3.10;2.22;;;;;;;;;;5081424;28;20055;-60
2023/12/31 11:45:01;;;;;;;3.08;1.83;;;;;;;;;;5083937;28;20424;-59
2023/12/31 11:47:29;;;;;;;2.22;1.60;;;;;;;;;;5080764;28;20055;-59
2023/12/31 11:50:11;;;;;;;2.47;1.40;;;;;;;;;;5075309;28;20056;-59
2023/12/31 11:52:38;;;;;;;1.83;1.35;;;;;;;;;;5081665;28;20048;-59
2023/12/31 11:55:10;;;;;;;1.83;1.20;;;;;;;;;;5076331;28;20389;-59
2023/12/31 11:57:38;;;;;;;2.47;1.00;;;;;;;;;;5080617;28;20052;-59
2023/12/31 12:00:08;;;;;;;2.08;0.80;;;;;;;;;;5079925;28;20056;-58
2023/12/31 12:02:34;;;;;;;;;;;;;;;;;;5078838;28;20047;-58
2023/12/31 12:05:01;;;;;;;1.38;0.63;;;;;;;;;;5082335;28;19920;-59
2023/12/31 12:07:29;;;;;;;1.30;0.80;;;;;;;;;;5082580;28;20436;-58
2023/12/31 12:09:56;;;;;;;1.17;0.75;;;;;;;;;;5083965;28;20048;-58
2023/12/31 12:12:24;;;;;;;2.00;1.00;;;;;;;;;;5082968;28;20044;-59
2023/12/31 12:14:51;;;;;;;2.85;1.20;;;;;;;;;;5084332;28;20055;-58
2023/12/31 12:17:17;;;;;;;1.77;1.13;;;;;;;;;;5079378;28;20409;-58
2023/12/31 12:19:44;;;;;;;3.55;1.45;;;;;;;;;;5082623;28;20080;-58
2023/12/31 12:22:12;;;;;;;2.03;1.10;;;;;;;;;;5085876;28;20052;-58
2023/12/31 12:24:39;;;;;;;2.38;0.88;;;;;;;;;;5093819;28;20059;-58
2023/12/31 12:27:06;;;;;;;2.42;1.00;;;;;;;;;;5094578;28;20052;-58
2023/12/31 12:29:36;;;;;;;2.40;1.10;;;;;;;;;;5094033;28;20059;-58
2023/12/31 12:32:04;;;;;;;1.60;0.85;;;;;;;;;;5081705;28;20048;-58
2023/12/31 12:34:31;;;;;;;3.08;1.08;;;;;;;;;;5083707;28;20093;-58
2023/12/31 12:36:59;;;;;;;2.00;0.60;;;;;;;;;;5078125;28;20052;-58
2023/12/31 12:39:26;;;;;;;2.28;0.75;;;;;;;;;;5083117;28;20488;-58
2023/12/31 12:41:53;;;;;;;1.70;0.85;;;;;;;;;;5081329;28;20056;-58
2023/12/31 12:44:22;;;;;;;1.83;0.68;;;;;;;;;;5081197;28;20060;-58
2023/12/31 12:46:51;;;;;;;1.10;0.70;;;;;;;;;;5074045;28;20053;-58
2023/12/31 12:49:19;;;;;;;0.90;0.50;;;;;;;;;;5073769;28;20052;-58
2023/12/31 12:51:47;;;;;;;1.60;0.70;;;;;;;;;;5073319;28;20060;-57
2023/12/31 12:54:14;;;;;;;2.00;0.70;;;;;;;;;;5087637;28;20044;-57
2023/12/31 12:56:41;;;;;;;2.60;0.90;;;;;;;;;;5087656;28;20063;-57
2023/12/31 12:59:08;;;;;;;2.38;0.90;;;;;;;;;;5077141;28;20082;-60
2023/12/31 13:01:36;;;;;;;1.48;0.80;;;;;;;;;;5073115;28;20053;-57
2023/12/31 13:04:10;;;;;;;2.20;1.33;;;;;;;;;;5078187;28;20052;-58
2023/12/31 13:06:37;;;;;;;2.10;1.00;;;;;;;;;;5085671;28;20043;-58
2023/12/31 13:09:04;;;;;;;3.47;1.08;;;;;;;;;;5089981;28;20061;-58
2023/12/31 13:11:31;;;;;;;2.70;1.20;;;;;;;;;;5093555;28;20396;-58
2023/12/31 13:13:57;;;;;;;2.20;1.10;;;;;;;;;;5087741;28;20052;-58
2023/12/31 13:16:24;;;;;;;1.50;0.68;;;;;;;;;;5089874;28;20039;-59
2023/12/31 13:18:51;;;;;;;1.45;0.80;;;;;;;;;;5074588;28;20052;-58
2023/12/31 13:21:19;;;;;;;2.30;1.00;;;;;;;;;;5074442;28;20075;-58
2023/12/31 13:23:46;;;;;;;2.33;0.70;;;;;;;;;;5092147;28;20051;-57
2023/12/31 13:26:13;;;;;;;1.60;0.60;;;;;;;;;;5093346;28;20052;-57
2023/12/31 13:28:40;;;;;;;1.60;0.60;;;;;;;;;;5089196;28;20378;-57
2023/12/31 13:31:06;;;;;;;2.85;1.60;;;;;;;;;;5075111;28;20485;-57
2023/12/31 13:33:33;;;;;;;1.67;0.80;;;;;;;;;;5091220;28;20493;-58
2023/12/31 13:36:00;;;;;;;3.60;1.30;;;;;;;;;;5093087;28;20048;-57
2023/12/31 13:38:28;;;;;;;3.78;1.30;;;;;;;;;;5092903;28;20526;-58
2023/12/31 13:40:55;;;;;;;2.08;0.70;;;;;;;;;;5091717;28;20070;-58
2023/12/31 13:43:22;;;;;;;2.13;1.20;;;;;;;;;;5074290;28;20056;-57
2023/12/31 13:45:49;;;;;;;1.80;0.80;;;;;;;;;;5072527;28;20398;-57
2023/12/31 13:48:17;;;;;;;0.95;0.60;;;;;;;;;;5072246;28;20060;-58
2023/12/31 13:50:44;;;;;;;1.50;0.80;;;;;;;;;;5072631;28;20056;-57
2023/12/31 13:53:11;;;;;;;1.65;0.70;;;;;;;;;;5083597;28;20055;-57
2023/12/31 13:55:39;;;;;;;1.83;0.70;;;;;;;;;;5092355;28;20048;-58
2023/12/31 13:58:08;;;;;;;1.30;0.70;;;;;;;;;;5086936;28;20052;-58
2023/12/31 14:00:35;;;;;;;2.75;1.27;;;;;;;;;;5072718;28;20413;-58
2023/12/31 14:03:01;;;;;;;2.72;1.08;;;;;;;;;;5081069;28;20051;-59
2023/12/31 14:05:28;;;;;;;4.03;1.10;;;;;;;;;;5085851;28;20052;-59
2023/12/31 14:07:55;;;;;;;2.53;0.93;;;;;;;;;;5080684;28;20413;-59
2023/12/31 14:10:22;;;;;;;3.97;1.33;;;;;;;;;;5072678;28;20059;-58
2023/12/31 14:12:50;;;;;;;6.40;2.78;;;;;;;;;;5072232;28;20064;-59
2023/12/31 14:15:17;;;;;;;4.32;1.73;;;;;;;;;;5079870;28;20056;-57
2023/12/31 14:17:44;;;;;;;4.63;1.65;;;;;;;;;;5072429;28;20442;-58
2023/12/31 14:20:11;;;;;;;4.40;1.48;;;;;;;;;;5072495;28;20056;-57
2023/12/31 14:22:38;;;;;;;6.68;1.80;;;;;;;;;;5072444;28;20056;-57
2023/12/31 14:25:05;;;;;;;4.60;1.23;;;;;;;;;;5082133;28;20056;-57
2023/12/31 14:27:32;;;;;;;3.28;1.25;;;;;;;;;;5074452;28;20056;-57
2023/12/31 14:30:00;;;;;;;4.47;1.52;;;;;;;;;;5072995;28;20052;-57
2023/12/31 14:32:27;;;;;;;3.15;1.05;;;;;;;;;;5086117;28;20053;-58
2023/12/31 14:34:54;;;;;;;2.55;0.90;;;;;;;;;;5075374;28;20049;-58
2023/12/31 14:38:01;;;;;;;4.38;1.50;;;;;;;;;;5158087;27;20149;-57
2023/12/31 14:40:28;;;;;;;3.83;1.83;;;;;;;;;;5154127;27;20047;-58
2023/12/31 14:42:55;;;;;;;2.88;1.30;;;;;;;;;;5154573;27;20046;-56
2023/12/31 14:45:22;;;;;;;4.10;1.48;;;;;;;;;;5151350;27;20510;-56